createdAt,value
2019-04-23T00:00:15.819Z,12.30
2019-04-23T00:02:51.221Z,6.80
2019-04-23T00:05:35.450Z,11.60
2019-04-23T00:07:56.148Z,11.23
2019-04-23T00:10:28.603Z,16.63
2019-04-23T00:12:59.192Z,12.80
2019-04-23T00:21:13.740Z,12.17
2019-04-23T00:23:53.407Z,7.10
2019-04-23T00:26:25.719Z,7.27
2019-04-23T00:31:24.000Z,7.07
2019-04-23T00:33:57.342Z,9.17
2019-04-23T00:36:44.345Z,11.00
2019-04-23T00:39:01.332Z,11.83
2019-04-23T00:41:42.886Z,11.80
2019-04-23T00:44:08.699Z,13.67
2019-04-23T00:46:41.454Z,11.10
2019-04-23T00:49:21.298Z,8.20
2019-04-23T00:51:50.094Z,11.50
2019-04-23T00:54:28.771Z,9.70
2019-04-23T00:57:01.374Z,13.80
2019-04-23T00:59:31.604Z,11.83
2019-04-23T01:02:03.887Z,10.27
2019-04-23T01:04:32.784Z,17.30
2019-04-23T01:07:04.461Z,13.23
2019-04-23T01:09:45.690Z,11.03
2019-04-23T01:12:14.125Z,7.90
2019-04-23T01:14:51.636Z,8.90
2019-04-23T01:17:26.649Z,13.87
2019-04-23T01:19:54.675Z,10.33
2019-04-23T01:22:10.473Z,16.90
2019-04-23T01:24:48.290Z,14.57
2019-04-23T01:30:19.652Z,11.80
2019-04-23T01:32:51.825Z,15.40
2019-04-23T01:35:33.303Z,15.20
2019-04-23T01:37:58.388Z,13.90
2019-04-23T01:40:38.831Z,13.17
2019-04-23T01:43:03.005Z,13.60
2019-04-23T01:45:31.310Z,12.30
2019-04-23T01:48:06.352Z,12.47
2019-04-23T01:50:50.128Z,12.13
2019-04-23T01:53:18.379Z,13.77
2019-04-23T01:55:51.200Z,15.90
2019-04-23T01:58:32.249Z,16.90
2019-04-23T02:00:56.311Z,15.37
2019-04-23T02:03:28.019Z,19.30
2019-04-23T02:06:00.291Z,15.10
2019-04-23T02:08:32.292Z,14.30
2019-04-23T02:11:21.603Z,21.17
2019-04-23T02:13:45.526Z,17.50
2019-04-23T02:16:13.430Z,18.90
2019-04-23T02:18:50.759Z,18.53
2019-04-23T02:21:41.387Z,17.43
2019-04-23T02:24:09.147Z,20.90
2019-04-23T02:26:46.434Z,14.97
2019-04-23T02:29:28.639Z,17.57
2019-04-23T02:34:42.875Z,21.90
2019-04-23T02:37:22.545Z,21.87
2019-04-23T02:39:40.146Z,19.33
2019-04-23T02:42:23.280Z,19.63
2019-04-23T02:47:17.415Z,16.73
2019-04-23T02:50:31.526Z,19.57
2019-04-23T02:57:24.719Z,22.27
2019-04-23T03:05:00.945Z,24.40
2019-04-23T03:07:42.728Z,22.67
2019-04-23T03:15:21.332Z,28.33
2019-04-23T03:21:15.520Z,24.83
2019-04-23T03:26:09.172Z,29.10
2019-04-23T03:41:23.597Z,30.77
2019-04-23T03:43:47.000Z,23.27
2019-04-23T03:48:51.173Z,24.70
2019-04-23T03:56:52.621Z,34.20
2019-04-23T03:59:11.364Z,28.47
2019-04-23T04:06:54.681Z,29.73
2019-04-23T04:09:28.697Z,26.93
2019-04-23T04:11:44.989Z,35.43
2019-04-23T04:14:34.282Z,28.90
2019-04-23T04:19:38.257Z,31.57
2019-04-23T04:27:05.446Z,29.67
2019-04-23T04:32:15.040Z,27.67
2019-04-23T04:37:36.207Z,31.27
2019-04-23T04:47:28.430Z,39.33
2019-04-23T04:50:10.313Z,28.33
2019-04-23T04:57:52.355Z,26.07
2019-04-23T05:00:39.879Z,24.77
2019-04-23T05:03:17.413Z,25.67
2019-04-23T05:05:55.292Z,24.93
2019-04-23T05:07:54.345Z,25.70
2019-04-23T05:13:22.689Z,19.37
2019-04-23T05:15:44.886Z,26.93
2019-04-23T05:18:39.943Z,25.33
2019-04-23T05:21:03.599Z,26.30
2019-04-23T05:23:50.369Z,22.93
2019-04-23T05:26:24.795Z,30.20
2019-04-23T05:31:23.148Z,26.70
2019-04-23T05:34:06.051Z,24.97
2019-04-23T05:36:52.167Z,22.90
2019-04-23T05:39:12.147Z,24.83
2019-04-23T05:41:36.490Z,26.50
2019-04-23T05:44:15.711Z,22.37
2019-04-23T05:54:27.700Z,22.33
2019-04-23T05:56:55.106Z,21.10
2019-04-23T05:59:41.876Z,23.37
2019-04-23T06:02:05.484Z,23.40
2019-04-23T06:04:43.113Z,23.90
2019-04-23T06:07:28.906Z,24.90
2019-04-23T06:09:52.071Z,18.30
2019-04-23T06:12:18.736Z,21.00
2019-04-23T06:14:57.538Z,19.17
2019-04-23T06:17:32.337Z,18.23
2019-04-23T06:22:48.087Z,29.33
2019-04-23T06:25:22.047Z,24.07
2019-04-23T06:27:56.006Z,19.47
2019-04-23T06:30:40.624Z,25.07
2019-04-23T06:33:21.064Z,17.60
2019-04-23T06:35:54.843Z,18.57
2019-04-23T06:38:40.437Z,19.07
2019-04-23T06:40:54.018Z,26.27
2019-04-23T06:43:56.308Z,21.23
2019-04-23T06:46:24.211Z,21.07
2019-04-23T06:48:47.748Z,27.83
2019-04-23T06:51:31.119Z,27.73
2019-04-23T06:53:49.855Z,16.70
2019-04-23T06:56:36.450Z,16.43
2019-04-23T06:59:05.936Z,26.60
2019-04-23T07:01:50.549Z,18.93
2019-04-23T07:04:12.713Z,16.73
2019-04-23T07:06:58.226Z,19.13
2019-04-23T07:09:13.443Z,19.17
2019-04-23T07:14:33.938Z,19.10
2019-04-23T07:16:58.355Z,16.07
2019-04-23T07:22:12.975Z,19.03
2019-04-23T07:24:43.680Z,15.63
2019-04-23T07:27:13.539Z,23.57
2019-04-23T07:29:56.594Z,22.13
2019-04-23T07:32:15.189Z,19.17
2019-04-23T07:35:02.467Z,18.70
2019-04-23T07:37:32.807Z,16.93
2019-04-23T07:40:27.544Z,18.17
2019-04-23T07:43:16.666Z,22.03
2019-04-23T07:46:10.379Z,19.33
2019-04-23T07:48:37.135Z,23.73
2019-04-23T07:51:17.191Z,21.83
2019-04-23T07:53:56.684Z,16.60
2019-04-23T07:56:36.206Z,20.30
2019-04-23T07:59:03.912Z,21.33
2019-04-23T08:01:29.834Z,19.13
2019-04-23T08:04:05.347Z,25.33
2019-04-23T08:06:40.943Z,17.80
2019-04-23T08:09:08.829Z,26.70
2019-04-23T08:12:07.870Z,19.67
2019-04-23T08:14:13.698Z,26.53
2019-04-23T08:17:00.697Z,19.90
2019-04-23T08:19:40.983Z,21.70
2019-04-23T08:22:12.517Z,25.43
2019-04-23T08:27:45.316Z,18.77
2019-04-23T08:30:09.766Z,19.00
2019-04-23T08:32:51.215Z,28.63
2019-04-23T08:35:27.240Z,20.27
2019-04-23T08:38:12.297Z,19.93
2019-04-23T08:40:27.588Z,24.63
2019-04-23T08:43:11.006Z,14.60
2019-04-23T08:45:40.008Z,22.07
2019-04-23T08:48:21.781Z,20.77
2019-04-23T08:50:57.856Z,17.17
2019-04-23T08:53:36.190Z,18.57
2019-04-23T08:56:05.074Z,21.60
2019-04-23T08:58:43.950Z,19.00
2019-04-23T09:01:10.652Z,28.57
2019-04-23T09:04:00.484Z,26.57
2019-04-23T09:06:22.208Z,18.10
2019-04-23T09:08:56.590Z,19.53
2019-04-23T09:11:41.654Z,20.90
2019-04-23T09:14:05.595Z,15.93
2019-04-23T09:16:51.470Z,17.70
2019-04-23T09:19:21.633Z,15.83
2019-04-23T09:22:01.993Z,19.13
2019-04-23T09:24:32.954Z,21.03
2019-04-23T09:27:09.804Z,15.73
2019-04-23T09:29:47.651Z,20.87
2019-04-23T09:35:20.235Z,20.47
2019-04-23T09:38:07.041Z,17.93
2019-04-23T09:43:53.892Z,14.87
2019-04-23T09:49:14.841Z,18.57
2019-04-23T09:51:54.470Z,17.90
2019-04-23T09:54:46.301Z,24.60
2019-04-23T09:56:55.256Z,16.63
2019-04-23T10:01:57.417Z,19.47
2019-04-23T10:04:26.596Z,26.10
2019-04-23T10:07:05.460Z,28.50
2019-04-23T10:09:25.811Z,17.33
2019-04-23T10:12:14.631Z,18.97
2019-04-23T10:14:59.225Z,18.73
2019-04-23T10:17:24.229Z,19.87
2019-04-23T10:19:56.241Z,18.70
2019-04-23T10:22:35.824Z,27.13
2019-04-23T10:25:11.007Z,18.40
2019-04-23T10:27:53.286Z,20.90
2019-04-23T10:32:53.824Z,22.10
2019-04-23T10:35:39.469Z,20.03
2019-04-23T10:38:04.420Z,21.73
2019-04-23T10:40:37.761Z,20.50
2019-04-23T10:43:09.266Z,25.00
2019-04-23T10:46:32.610Z,21.83
2019-04-23T10:58:35.286Z,17.10
2019-04-23T11:01:14.993Z,22.60
2019-04-23T11:03:58.840Z,18.17
2019-04-23T11:06:30.700Z,13.43
2019-04-23T11:09:04.983Z,13.77
2019-04-23T11:11:38.020Z,17.70
2019-04-23T11:14:18.302Z,18.47
2019-04-23T11:16:59.890Z,17.60
2019-04-23T11:19:25.799Z,23.60
2019-04-23T11:22:06.183Z,26.03
2019-04-23T11:29:46.797Z,23.67
2019-04-23T11:37:50.446Z,18.43
2019-04-23T11:40:15.606Z,17.37
2019-04-23T11:42:52.931Z,18.60
2019-04-23T11:48:22.423Z,26.00
2019-04-23T11:53:06.676Z,22.30
2019-04-23T11:58:26.946Z,15.03
2019-04-23T12:01:23.619Z,20.57
2019-04-23T12:04:04.993Z,14.73
2019-04-23T12:06:50.868Z,16.53
2019-04-23T12:09:43.021Z,19.73
2019-04-23T12:12:10.404Z,19.67
2019-04-23T12:17:35.301Z,21.13
2019-04-23T12:22:30.111Z,16.67
2019-04-23T12:27:31.306Z,18.23
2019-04-23T12:30:08.588Z,19.17
2019-04-23T12:35:22.459Z,24.57
2019-04-23T12:37:44.819Z,23.60
2019-04-23T12:40:36.684Z,12.63
2019-04-23T12:45:38.859Z,22.07
2019-04-23T12:48:44.037Z,21.43
2019-04-23T12:56:06.330Z,20.77
2019-04-23T13:01:05.263Z,19.27
2019-04-23T13:03:41.484Z,16.20
2019-04-23T13:06:13.618Z,12.57
2019-04-23T13:09:11.644Z,16.90
2019-04-23T13:11:33.147Z,21.03
2019-04-23T13:14:00.826Z,19.20
2019-04-23T13:16:38.149Z,21.10
2019-04-23T13:19:18.206Z,11.77
2019-04-23T13:24:38.631Z,15.17
2019-04-23T13:27:10.778Z,20.10
2019-04-23T13:29:50.158Z,16.97
2019-04-23T13:32:23.898Z,21.77
2019-04-23T13:34:58.889Z,16.27
2019-04-23T13:37:37.601Z,13.40
2019-04-23T13:39:58.266Z,24.23
2019-04-23T13:45:27.495Z,15.03
2019-04-23T13:47:53.207Z,11.37
2019-04-23T13:50:33.023Z,15.83
2019-04-23T13:53:07.612Z,22.63
2019-04-23T13:55:24.860Z,9.73
2019-04-23T14:01:00.946Z,22.90
2019-04-23T14:03:23.318Z,17.90
2019-04-23T14:06:10.686Z,27.20
2019-04-23T14:11:11.598Z,26.17
2019-04-23T14:13:49.616Z,12.37
2019-04-23T14:16:23.140Z,18.93
2019-04-23T14:26:32.638Z,17.83
2019-04-23T14:29:02.163Z,24.43
2019-04-23T14:31:54.985Z,15.17
2019-04-23T14:34:11.643Z,12.47
2019-04-23T14:36:50.270Z,19.83
2019-04-23T14:39:28.083Z,16.80
2019-04-23T14:41:53.654Z,14.93
2019-04-23T14:44:23.618Z,21.57
2019-04-23T14:47:13.291Z,14.70
2019-04-23T14:49:45.509Z,15.47
2019-04-23T14:52:14.461Z,13.27
2019-04-23T14:55:22.626Z,16.17
2019-04-23T15:00:01.636Z,18.93
2019-04-23T15:02:36.349Z,20.60
2019-04-23T15:05:05.120Z,12.67
2019-04-23T15:07:34.385Z,18.33
2019-04-23T15:10:18.721Z,13.23
2019-04-23T15:12:48.620Z,22.20
2019-04-23T15:15:27.426Z,11.10
2019-04-23T15:17:58.131Z,22.90
2019-04-23T15:20:39.789Z,19.83
2019-04-23T15:23:33.546Z,21.93
2019-04-23T15:26:03.612Z,16.47
2019-04-23T15:28:07.475Z,16.70
2019-04-23T15:30:57.086Z,17.80
2019-04-23T15:36:12.951Z,15.40
2019-04-23T15:38:43.335Z,20.37
2019-04-23T15:41:23.439Z,17.90
2019-04-23T15:43:49.495Z,14.20
2019-04-23T15:46:26.866Z,20.30
2019-04-23T15:49:01.482Z,23.40
2019-04-23T15:54:02.759Z,15.13
2019-04-23T16:01:42.603Z,19.30
2019-04-23T16:04:07.241Z,14.07
2019-04-23T16:06:45.920Z,14.70
2019-04-23T16:09:57.377Z,23.17
2019-04-23T16:12:28.099Z,14.90
2019-04-23T16:15:02.524Z,12.30
2019-04-23T16:20:17.192Z,11.20
2019-04-23T16:22:39.704Z,13.90
2019-04-23T16:25:15.586Z,20.10
2019-04-23T16:27:49.161Z,17.77
2019-04-23T16:30:19.117Z,15.90
2019-04-23T16:35:58.520Z,24.70
2019-04-23T16:40:57.067Z,19.50
2019-04-23T16:43:34.756Z,19.30
2019-04-23T16:46:11.473Z,25.33
2019-04-23T16:49:10.161Z,23.23
2019-04-23T16:54:01.433Z,16.97
2019-04-23T16:56:41.992Z,20.33
2019-04-23T17:01:48.881Z,14.57
2019-04-23T17:04:24.747Z,22.60
2019-04-23T17:06:52.041Z,13.93
2019-04-23T17:09:29.298Z,17.60
2019-04-23T17:12:07.769Z,18.13
2019-04-23T17:14:33.590Z,16.70
2019-04-23T17:17:08.355Z,16.87
2019-04-23T17:19:47.102Z,21.07
2019-04-23T17:22:17.699Z,22.20
2019-04-23T17:25:15.320Z,14.83
2019-04-23T17:27:52.490Z,12.97
2019-04-23T17:30:22.177Z,23.17
2019-04-23T17:33:13.410Z,22.00
2019-04-23T17:38:26.426Z,25.83
2019-04-23T17:41:05.715Z,16.47
2019-04-23T17:43:47.077Z,16.83
2019-04-23T17:46:14.699Z,14.50
2019-04-23T17:51:40.963Z,17.73
2019-04-23T17:54:16.221Z,16.80
2019-04-23T17:57:01.539Z,22.83
2019-04-23T17:59:28.133Z,16.57
2019-04-23T18:02:18.418Z,18.63
2019-04-23T18:04:33.284Z,24.37
2019-04-23T18:07:29.473Z,17.30
2019-04-23T18:10:22.943Z,25.27
2019-04-23T18:12:43.539Z,20.10
2019-04-23T18:15:15.652Z,24.87
2019-04-23T18:17:54.802Z,17.53
2019-04-23T18:20:58.323Z,21.43
2019-04-23T18:23:22.184Z,25.33
2019-04-23T18:26:05.414Z,24.97
2019-04-23T18:28:37.663Z,23.10
2019-04-23T18:31:13.142Z,20.93
2019-04-23T18:34:08.764Z,25.27
2019-04-23T18:36:19.610Z,22.37
2019-04-23T18:38:59.812Z,17.13
2019-04-23T18:41:33.768Z,25.87
2019-04-23T18:44:16.315Z,20.70
2019-04-23T18:46:43.513Z,24.77
2019-04-23T18:49:22.460Z,21.83
2019-04-23T18:51:55.068Z,19.70
2019-04-23T18:54:25.019Z,26.30
2019-04-23T18:57:09.315Z,22.40
2019-04-23T18:59:42.305Z,23.73
2019-04-23T19:02:20.630Z,30.07
2019-04-23T19:05:08.546Z,29.43
2019-04-23T19:08:01.036Z,21.03
2019-04-23T19:10:36.177Z,20.07
2019-04-23T19:13:11.238Z,27.13
2019-04-23T19:18:18.735Z,19.10
2019-04-23T19:21:00.935Z,29.57
2019-04-23T19:23:34.866Z,24.97
2019-04-23T19:25:54.637Z,22.07
2019-04-23T19:28:41.094Z,26.00
2019-04-23T19:31:26.151Z,22.10
2019-04-23T19:34:13.904Z,22.43
2019-04-23T19:39:17.629Z,24.53
2019-04-23T19:41:55.666Z,19.20
2019-04-23T19:44:20.109Z,25.90
2019-04-23T19:49:26.847Z,26.53
2019-04-23T19:52:00.896Z,21.67
2019-04-23T19:54:34.359Z,17.17
2019-04-23T20:02:22.062Z,30.63
2019-04-23T20:07:32.836Z,37.03
2019-04-23T20:13:45.683Z,28.17
2019-04-23T20:18:50.543Z,23.07
2019-04-23T20:21:13.239Z,28.87
2019-04-23T20:24:04.694Z,24.17
2019-04-23T20:34:40.142Z,27.77
2019-04-23T20:39:44.266Z,30.43
2019-04-23T20:52:30.555Z,22.13
2019-04-23T20:58:05.507Z,31.50
2019-04-23T21:00:27.497Z,27.87
2019-04-23T21:03:25.696Z,31.10
2019-04-23T21:05:32.966Z,37.47
2019-04-23T21:10:40.394Z,31.77
2019-04-23T21:13:27.779Z,28.67
2019-04-23T21:18:33.082Z,34.20
2019-04-23T21:23:32.177Z,26.73
2019-04-23T21:26:00.098Z,29.80
2019-04-23T21:28:44.358Z,31.77
2019-04-23T21:31:21.143Z,34.27
2019-04-23T21:33:57.221Z,33.50
2019-04-23T21:36:25.224Z,33.97
2019-04-23T21:39:53.509Z,28.73
2019-04-23T21:42:33.115Z,29.90
2019-04-23T21:44:52.872Z,37.93
2019-04-23T21:47:42.627Z,31.47
2019-04-23T21:52:34.803Z,37.03
2019-04-23T21:55:03.631Z,21.07
2019-04-23T22:00:08.304Z,41.20
2019-04-23T22:02:54.770Z,33.17
2019-04-23T22:05:26.920Z,34.00
2019-04-23T22:07:58.150Z,32.03
2019-04-23T22:10:27.806Z,25.53
2019-04-23T22:13:09.587Z,28.57
2019-04-23T22:15:44.965Z,34.93
2019-04-23T22:18:09.456Z,36.13
2019-04-23T22:20:44.034Z,31.60
2019-04-23T22:23:12.628Z,30.07
2019-04-23T22:25:51.628Z,37.73
2019-04-23T22:28:16.503Z,25.87
2019-04-23T22:30:54.766Z,34.20
2019-04-23T22:36:06.261Z,37.10
2019-04-23T22:38:29.547Z,34.47
2019-04-23T22:43:33.651Z,31.93
2019-04-23T22:46:08.565Z,24.60
2019-04-23T22:49:06.343Z,36.17
2019-04-23T22:51:41.598Z,24.30
2019-04-23T22:56:38.968Z,26.80
2019-04-23T22:59:26.764Z,23.50
2019-04-23T23:01:49.938Z,28.63
2019-04-23T23:11:54.275Z,30.27
2019-04-23T23:16:57.177Z,26.57
2019-04-23T23:19:40.535Z,28.23
2019-04-23T23:24:39.360Z,25.40
2019-04-23T23:27:05.508Z,32.67
2019-04-23T23:30:06.414Z,25.43
2019-04-23T23:32:31.744Z,30.40
2019-04-23T23:37:28.458Z,33.57
2019-04-23T23:40:14.714Z,26.93
2019-04-23T23:42:34.728Z,24.93
2019-04-23T23:45:19.641Z,35.83
2019-04-23T23:47:37.900Z,31.60
2019-04-23T23:50:21.534Z,31.20
2019-04-23T23:53:02.509Z,32.00
2019-04-23T23:55:25.009Z,27.33
2019-04-23T23:57:50.979Z,23.90
